Hootenville, Louisiana
Current Conditions -  °F | °C
As of 9:53 AM on Wednesday 26 Nov 2014 (Local Time) from KASD Reporting Station
Clear Clear  
Wind Chill: 54°   Ceiling: Unl
Heat Index: 54°   Visibility: 10mi
Dew Point: 31°   Wind: 0mph
Humidity: 41%   Direction: NA
Pressure: 30.29"   Gusts: NA
Location:  30.3898°N, 90.0068°W
Report Text: KASD 261553Z AUTO 00000KT 10SM CLR 12/M01 A3029 RMK AO2 SLP256 T01221006
Loading
Personal Weather Stations






























Interactive Weather Map New forecast layout! Learn more

10-Day Weather Forecast

Advertisements
Track Severe Weather on mobile